CST,Max TemperatureF,Mean TemperatureF,Min TemperatureF,Max Dew PointF,MeanDew PointF,Min DewpointF,Max Humidity, Mean Humidity, Min Humidity, Max Sea Level PressureIn, Mean Sea Level PressureIn, Min Sea Level PressureIn, Max VisibilityMiles, Mean VisibilityMiles, Min VisibilityMiles, Max Wind SpeedMPH, Mean Wind SpeedMPH, Max Gust SpeedMPH,PrecipitationIn, CloudCover, Events, WindDirDegrees
2012-10-1,89,80,72,75,73,70,94,73,51,29.85,29.78,29.71,12,7,3,8,4,,0.08,3,Rain-Thunderstorm,19
2012-10-2,88,80,71,75,73,68,100,77,49,29.92,29.86,29.80,12,7,2,9,4,,0.12,5,Rain,187
2012-10-3,84,79,73,77,74,64,100,87,68,30.01,29.96,29.88,12,6,2,7,3,,1.14,6,Rain-Thunderstorm,217
2012-10-4,86,78,71,77,74,70,95,82,64,30.02,29.97,29.92,12,6,3,7,3,,0.04,6,Thunderstorm,255
2012-10-5,86,78,71,76,73,70,96,81,57,29.98,29.91,29.83,12,7,6,7,2,,0.00,4,,10
2012-10-6,86,80,73,75,73,70,94,83,66,29.89,29.87,29.83,6,6,6,7,2,,0.00,4,,290
2012-10-7,86,78,71,75,73,70,94,79,61,29.90,29.84,29.77,12,7,6,7,2,,0.00,4,,349
2012-10-8,87,80,72,75,74,70,100,78,60,29.95,29.90,29.83,12,7,6,8,4,,0.02,4,Rain-Thunderstorm,22
2012-10-9,87,79,71,75,73,70,94,76,56,29.96,29.91,29.83,12,7,1,17,4,24,0.51,5,Rain-Thunderstorm,57
2012-10-10,83,77,71,77,74,71,100,87,69,29.96,29.90,29.83,12,6,1,7,4,,0.47,7,Rain-Thunderstorm,254
2012-10-11,86,80,73,77,75,72,94,83,64,29.96,29.91,29.86,12,7,6,9,4,,0.16,4,Rain-Thunderstorm,52
2012-10-12,86,78,71,77,74,70,94,81,58,30.01,29.94,29.88,12,7,2,8,3,,0.71,4,Rain-Thunderstorm,49
2012-10-13,87,78,69,75,72,68,94,83,57,30.01,29.94,29.86,6,6,3,13,4,,0.20,5,Rain-Thunderstorm,132
2012-10-14,86,78,70,75,72,68,96,77,58,29.97,29.92,29.86,12,7,6,8,3,,0.02,3,,234
2012-10-15,88,78,67,74,70,66,88,72,52,29.96,29.88,29.83,12,8,6,12,5,,0.00,3,,244
2012-10-16,85,78,69,74,71,64,97,82,62,29.94,29.85,29.77,12,6,1,12,5,,0.51,5,Rain,216
2012-10-17,89,79,69,75,71,63,89,70,49,29.89,29.83,29.77,12,7,6,7,4,,0.00,3,,14
2012-10-18,88,78,68,77,72,66,94,75,46,29.86,29.82,29.74,12,8,6,8,2,,0.00,3,,35
2012-10-19,88,80,71,77,74,70,95,80,56,29.88,29.82,29.74,12,7,2,7,3,,1.57,3,Rain-Thunderstorm,258
2012-10-20,84,78,73,77,74,72,100,86,70,29.86,29.81,29.74,12,5,1,5,3,,0.08,6,Rain,263
2012-10-21,84,78,73,76,74,72,94,86,69,29.89,29.84,29.77,12,6,2,6,3,,0.08,7,Rain,313
2012-10-22,82,77,72,75,74,72,100,88,76,29.89,29.83,29.74,9,5,1,6,3,,0.31,6,Rain,225
2012-10-23,82,78,73,75,73,70,100,89,74,29.83,29.79,29.74,10,6,2,8,5,,0.28,5,Rain,222
2012-10-24,85,79,73,75,73,71,100,87,68,29.85,29.78,29.74,10,6,1,12,6,,1.10,6,Rain-Thunderstorm,213
2012-10-25,85,77,68,75,71,63,94,79,61,29.86,29.81,29.77,12,7,4,9,6,,0.24,4,Rain,230
2012-10-26,86,75,64,74,69,62,94,72,42,29.89,29.83,29.77,12,7,6,7,2,,0.00,2,,340
2012-10-27,85,76,68,74,71,68,94,76,55,29.93,29.87,29.83,12,7,6,85,5,,0.00,3,,251
2012-10-28,85,75,65,72,68,64,94,75,48,29.95,29.92,29.89,12,7,6,9,3,,0.00,5,Rain,250
2012-10-29,85,74,63,73,69,62,100,82,49,30.03,29.96,29.92,12,6,1,10,3,,1.57,6,Rain,228
2012-10-30,84,76,69,72,70,68,94,80,55,30.06,30.00,29.95,11,6,3,8,3,,0.08,5,Rain,133
2012-10-31,84,76,68,72,69,66,100,76,54,30.03,29.99,29.95,12,7,6,8,2,,0.00,4,,42